sensor_id;sensor_type;location;lat;lon;timestamp;P1;durP1;ratioP1;P2;durP2;ratioP2
35239;SDS011;21376;50.954;4.716;2023-04-06T00:01:33;36.45;;;18.45;;
35239;SDS011;21376;50.954;4.716;2023-04-06T00:04:02;39.33;;;20.20;;
35239;SDS011;21376;50.954;4.716;2023-04-06T00:06:31;40.95;;;19.27;;
35239;SDS011;21376;50.954;4.716;2023-04-06T00:09:10;38.42;;;18.70;;
35239;SDS011;21376;50.954;4.716;2023-04-06T00:14:23;36.92;;;19.33;;
35239;SDS011;21376;50.954;4.716;2023-04-06T00:19:20;40.70;;;19.73;;
35239;SDS011;21376;50.954;4.716;2023-04-06T00:21:47;43.17;;;19.02;;
35239;SDS011;21376;50.954;4.716;2023-04-06T00:24:13;40.53;;;19.65;;
35239;SDS011;21376;50.954;4.716;2023-04-06T00:26:40;34.38;;;19.17;;
35239;SDS011;21376;50.954;4.716;2023-04-06T00:29:08;38.97;;;20.10;;
35239;SDS011;21376;50.954;4.716;2023-04-06T00:36:44;37.47;;;19.63;;
35239;SDS011;21376;50.954;4.716;2023-04-06T00:45:40;39.40;;;19.90;;
35239;SDS011;21376;50.954;4.716;2023-04-06T00:55:27;38.90;;;19.52;;
35239;SDS011;21376;50.954;4.716;2023-04-06T01:00:26;40.13;;;20.42;;
35239;SDS011;21376;50.954;4.716;2023-04-06T01:18:40;34.95;;;18.92;;
35239;SDS011;21376;50.954;4.716;2023-04-06T01:21:08;36.97;;;19.65;;
35239;SDS011;21376;50.954;4.716;2023-04-06T01:23:36;35.97;;;18.63;;
35239;SDS011;21376;50.954;4.716;2023-04-06T01:26:04;37.53;;;18.27;;
35239;SDS011;21376;50.954;4.716;2023-04-06T01:28:30;43.50;;;18.83;;
35239;SDS011;21376;50.954;4.716;2023-04-06T01:30:59;35.65;;;18.30;;
35239;SDS011;21376;50.954;4.716;2023-04-06T01:33:27;35.95;;;18.95;;
35239;SDS011;21376;50.954;4.716;2023-04-06T01:38:25;42.40;;;19.05;;
35239;SDS011;21376;50.954;4.716;2023-04-06T01:43:38;33.65;;;18.05;;
35239;SDS011;21376;50.954;4.716;2023-04-06T01:46:07;44.40;;;19.00;;
35239;SDS011;21376;50.954;4.716;2023-04-06T01:48:34;41.25;;;20.17;;
35239;SDS011;21376;50.954;4.716;2023-04-06T01:51:03;39.65;;;19.42;;
35239;SDS011;21376;50.954;4.716;2023-04-06T01:53:32;33.60;;;18.27;;
35239;SDS011;21376;50.954;4.716;2023-04-06T02:01:27;36.25;;;18.10;;
35239;SDS011;21376;50.954;4.716;2023-04-06T02:03:54;33.50;;;18.05;;
35239;SDS011;21376;50.954;4.716;2023-04-06T02:06:23;37.22;;;18.02;;
35239;SDS011;21376;50.954;4.716;2023-04-06T02:08:50;37.53;;;18.40;;
35239;SDS011;21376;50.954;4.716;2023-04-06T02:11:19;39.80;;;18.17;;
35239;SDS011;21376;50.954;4.716;2023-04-06T02:20:20;36.20;;;18.70;;
35239;SDS011;21376;50.954;4.716;2023-04-06T02:22:49;33.92;;;19.05;;
35239;SDS011;21376;50.954;4.716;2023-04-06T02:25:17;32.78;;;18.10;;
35239;SDS011;21376;50.954;4.716;2023-04-06T02:27:45;39.40;;;18.70;;
35239;SDS011;21376;50.954;4.716;2023-04-06T02:32:42;38.08;;;18.73;;
35239;SDS011;21376;50.954;4.716;2023-04-06T02:35:11;37.70;;;18.40;;
35239;SDS011;21376;50.954;4.716;2023-04-06T02:42:41;40.83;;;18.85;;
35239;SDS011;21376;50.954;4.716;2023-04-06T02:45:13;33.78;;;18.80;;
35239;SDS011;21376;50.954;4.716;2023-04-06T02:47:42;39.95;;;17.98;;
35239;SDS011;21376;50.954;4.716;2023-04-06T02:54:59;35.17;;;17.35;;
35239;SDS011;21376;50.954;4.716;2023-04-06T02:57:25;36.10;;;18.60;;
35239;SDS011;21376;50.954;4.716;2023-04-06T02:59:52;35.05;;;17.80;;
35239;SDS011;21376;50.954;4.716;2023-04-06T03:02:21;40.20;;;18.92;;
35239;SDS011;21376;50.954;4.716;2023-04-06T03:04:54;36.05;;;18.95;;
35239;SDS011;21376;50.954;4.716;2023-04-06T03:07:20;30.50;;;18.33;;
35239;SDS011;21376;50.954;4.716;2023-04-06T03:09:50;38.95;;;18.00;;
35239;SDS011;21376;50.954;4.716;2023-04-06T03:12:16;34.45;;;17.75;;
35239;SDS011;21376;50.954;4.716;2023-04-06T03:23:13;32.17;;;16.90;;
35239;SDS011;21376;50.954;4.716;2023-04-06T03:30:39;33.17;;;17.85;;
35239;SDS011;21376;50.954;4.716;2023-04-06T03:33:08;30.33;;;17.98;;
35239;SDS011;21376;50.954;4.716;2023-04-06T03:35:34;39.88;;;19.17;;
35239;SDS011;21376;50.954;4.716;2023-04-06T03:38:15;37.70;;;18.33;;
35239;SDS011;21376;50.954;4.716;2023-04-06T03:40:59;34.40;;;18.52;;
35239;SDS011;21376;50.954;4.716;2023-04-06T03:43:28;34.58;;;18.30;;
35239;SDS011;21376;50.954;4.716;2023-04-06T03:45:54;35.83;;;18.85;;
35239;SDS011;21376;50.954;4.716;2023-04-06T03:51:36;38.35;;;18.58;;
35239;SDS011;21376;50.954;4.716;2023-04-06T03:54:02;32.65;;;17.38;;
35239;SDS011;21376;50.954;4.716;2023-04-06T03:56:30;32.22;;;18.02;;
35239;SDS011;21376;50.954;4.716;2023-04-06T03:58:56;34.83;;;18.63;;
35239;SDS011;21376;50.954;4.716;2023-04-06T04:01:22;37.67;;;18.58;;
35239;SDS011;21376;50.954;4.716;2023-04-06T04:03:48;31.58;;;17.63;;
35239;SDS011;21376;50.954;4.716;2023-04-06T04:06:30;37.75;;;17.33;;
35239;SDS011;21376;50.954;4.716;2023-04-06T04:09:00;31.88;;;17.45;;
35239;SDS011;21376;50.954;4.716;2023-04-06T04:11:32;34.17;;;17.55;;
35239;SDS011;21376;50.954;4.716;2023-04-06T04:14:03;36.55;;;16.90;;
35239;SDS011;21376;50.954;4.716;2023-04-06T04:16:32;31.20;;;16.77;;
35239;SDS011;21376;50.954;4.716;2023-04-06T04:19:04;31.50;;;16.95;;
35239;SDS011;21376;50.954;4.716;2023-04-06T04:21:31;30.95;;;16.90;;
35239;SDS011;21376;50.954;4.716;2023-04-06T04:23:58;29.45;;;16.98;;
35239;SDS011;21376;50.954;4.716;2023-04-06T04:32:52;31.00;;;16.20;;
35239;SDS011;21376;50.954;4.716;2023-04-06T04:49:49;28.48;;;16.05;;
35239;SDS011;21376;50.954;4.716;2023-04-06T04:52:15;31.35;;;16.65;;
35239;SDS011;21376;50.954;4.716;2023-04-06T04:54:41;31.02;;;15.50;;
35239;SDS011;21376;50.954;4.716;2023-04-06T04:57:07;29.52;;;15.77;;
35239;SDS011;21376;50.954;4.716;2023-04-06T05:02:02;28.90;;;16.40;;
35239;SDS011;21376;50.954;4.716;2023-04-06T05:12:02;32.95;;;16.40;;
35239;SDS011;21376;50.954;4.716;2023-04-06T05:20:00;31.05;;;17.25;;
35239;SDS011;21376;50.954;4.716;2023-04-06T05:22:30;34.00;;;16.65;;
35239;SDS011;21376;50.954;4.716;2023-04-06T05:27:36;27.42;;;14.38;;
35239;SDS011;21376;50.954;4.716;2023-04-06T05:30:02;26.77;;;14.80;;
35239;SDS011;21376;50.954;4.716;2023-04-06T05:32:28;26.50;;;16.17;;
35239;SDS011;21376;50.954;4.716;2023-04-06T05:34:58;25.70;;;14.75;;
35239;SDS011;21376;50.954;4.716;2023-04-06T05:37:28;29.85;;;16.20;;
35239;SDS011;21376;50.954;4.716;2023-04-06T05:42:25;28.40;;;15.88;;
35239;SDS011;21376;50.954;4.716;2023-04-06T05:44:55;26.63;;;14.63;;
35239;SDS011;21376;50.954;4.716;2023-04-06T05:52:39;30.27;;;16.83;;
35239;SDS011;21376;50.954;4.716;2023-04-06T05:55:16;32.67;;;17.23;;
35239;SDS011;21376;50.954;4.716;2023-04-06T06:03:02;30.67;;;16.33;;
35239;SDS011;21376;50.954;4.716;2023-04-06T06:10:33;30.40;;;15.90;;
35239;SDS011;21376;50.954;4.716;2023-04-06T06:12:59;30.25;;;17.48;;
35239;SDS011;21376;50.954;4.716;2023-04-06T06:15:26;38.03;;;18.52;;
35239;SDS011;21376;50.954;4.716;2023-04-06T06:17:55;36.55;;;18.15;;
35239;SDS011;21376;50.954;4.716;2023-04-06T06:22:53;33.42;;;18.35;;
35239;SDS011;21376;50.954;4.716;2023-04-06T06:25:19;33.58;;;17.60;;
35239;SDS011;21376;50.954;4.716;2023-04-06T06:27:46;31.40;;;16.67;;
35239;SDS011;21376;50.954;4.716;2023-04-06T06:32:44;31.40;;;17.08;;
35239;SDS011;21376;50.954;4.716;2023-04-06T06:37:45;28.90;;;16.98;;
35239;SDS011;21376;50.954;4.716;2023-04-06T06:40:12;30.45;;;17.50;;
35239;SDS011;21376;50.954;4.716;2023-04-06T06:45:30;35.67;;;19.25;;
35239;SDS011;21376;50.954;4.716;2023-04-06T06:47:56;32.58;;;18.65;;
35239;SDS011;21376;50.954;4.716;2023-04-06T06:50:22;33.78;;;16.90;;
35239;SDS011;21376;50.954;4.716;2023-04-06T06:52:49;39.55;;;16.77;;
35239;SDS011;21376;50.954;4.716;2023-04-06T06:55:15;32.40;;;16.90;;
35239;SDS011;21376;50.954;4.716;2023-04-06T06:57:47;34.50;;;17.17;;
35239;SDS011;21376;50.954;4.716;2023-04-06T07:06:38;31.38;;;17.85;;
35239;SDS011;21376;50.954;4.716;2023-04-06T07:11:35;38.55;;;18.85;;
35239;SDS011;21376;50.954;4.716;2023-04-06T07:14:04;36.88;;;20.65;;
35239;SDS011;21376;50.954;4.716;2023-04-06T07:19:33;39.58;;;20.13;;
35239;SDS011;21376;50.954;4.716;2023-04-06T07:22:02;35.70;;;18.40;;
35239;SDS011;21376;50.954;4.716;2023-04-06T07:24:29;34.50;;;18.45;;
35239;SDS011;21376;50.954;4.716;2023-04-06T07:27:00;34.53;;;17.83;;
35239;SDS011;21376;50.954;4.716;2023-04-06T07:31:52;32.55;;;18.00;;
35239;SDS011;21376;50.954;4.716;2023-04-06T07:34:18;29.55;;;17.63;;
35239;SDS011;21376;50.954;4.716;2023-04-06T07:36:45;31.70;;;17.63;;
35239;SDS011;21376;50.954;4.716;2023-04-06T07:41:58;31.73;;;17.98;;
35239;SDS011;21376;50.954;4.716;2023-04-06T07:46:56;36.83;;;19.27;;
35239;SDS011;21376;50.954;4.716;2023-04-06T07:51:59;36.75;;;18.42;;
35239;SDS011;21376;50.954;4.716;2023-04-06T07:54:31;33.58;;;19.20;;
35239;SDS011;21376;50.954;4.716;2023-04-06T08:02:48;38.30;;;20.45;;
35239;SDS011;21376;50.954;4.716;2023-04-06T08:05:14;35.97;;;19.77;;
35239;SDS011;21376;50.954;4.716;2023-04-06T08:07:40;36.40;;;18.98;;
35239;SDS011;21376;50.954;4.716;2023-04-06T08:12:41;33.47;;;18.25;;
35239;SDS011;21376;50.954;4.716;2023-04-06T08:15:13;36.03;;;19.75;;
35239;SDS011;21376;50.954;4.716;2023-04-06T08:17:41;36.22;;;19.60;;
35239;SDS011;21376;50.954;4.716;2023-04-06T08:20:13;29.63;;;16.63;;
35239;SDS011;21376;50.954;4.716;2023-04-06T08:22:40;32.03;;;16.80;;
35239;SDS011;21376;50.954;4.716;2023-04-06T08:25:14;30.58;;;17.83;;
35239;SDS011;21376;50.954;4.716;2023-04-06T08:27:41;33.97;;;17.35;;
35239;SDS011;21376;50.954;4.716;2023-04-06T08:30:07;34.47;;;18.40;;
35239;SDS011;21376;50.954;4.716;2023-04-06T08:32:33;35.63;;;17.02;;
35239;SDS011;21376;50.954;4.716;2023-04-06T08:35:01;29.63;;;16.13;;
35239;SDS011;21376;50.954;4.716;2023-04-06T08:39:58;28.33;;;16.40;;
35239;SDS011;21376;50.954;4.716;2023-04-06T08:42:25;31.88;;;18.02;;
35239;SDS011;21376;50.954;4.716;2023-04-06T08:44:51;33.22;;;17.25;;
35239;SDS011;21376;50.954;4.716;2023-04-06T08:47:18;27.77;;;16.98;;
35239;SDS011;21376;50.954;4.716;2023-04-06T08:49:45;31.23;;;17.95;;
35239;SDS011;21376;50.954;4.716;2023-04-06T08:52:13;30.08;;;17.00;;
35239;SDS011;21376;50.954;4.716;2023-04-06T08:54:42;31.60;;;18.02;;
35239;SDS011;21376;50.954;4.716;2023-04-06T08:57:10;32.00;;;18.23;;
35239;SDS011;21376;50.954;4.716;2023-04-06T08:59:37;33.25;;;18.52;;
35239;SDS011;21376;50.954;4.716;2023-04-06T09:02:05;34.85;;;18.30;;
35239;SDS011;21376;50.954;4.716;2023-04-06T09:04:36;33.45;;;17.38;;
35239;SDS011;21376;50.954;4.716;2023-04-06T09:07:02;29.52;;;16.02;;
35239;SDS011;21376;50.954;4.716;2023-04-06T09:09:29;31.58;;;17.00;;
35239;SDS011;21376;50.954;4.716;2023-04-06T09:11:55;31.25;;;15.98;;
35239;SDS011;21376;50.954;4.716;2023-04-06T09:14:34;29.98;;;16.92;;
35239;SDS011;21376;50.954;4.716;2023-04-06T09:17:03;33.85;;;15.75;;
35239;SDS011;21376;50.954;4.716;2023-04-06T09:19:31;26.83;;;15.10;;
35239;SDS011;21376;50.954;4.716;2023-04-06T09:22:07;26.85;;;15.38;;
35239;SDS011;21376;50.954;4.716;2023-04-06T09:24:43;28.98;;;16.00;;
35239;SDS011;21376;50.954;4.716;2023-04-06T09:27:10;24.88;;;14.23;;
35239;SDS011;21376;50.954;4.716;2023-04-06T09:29:42;25.90;;;14.38;;
35239;SDS011;21376;50.954;4.716;2023-04-06T09:32:10;26.80;;;14.48;;
35239;SDS011;21376;50.954;4.716;2023-04-06T09:37:21;27.13;;;14.77;;
35239;SDS011;21376;50.954;4.716;2023-04-06T09:42:34;30.67;;;15.70;;
35239;SDS011;21376;50.954;4.716;2023-04-06T09:45:03;31.70;;;16.13;;
35239;SDS011;21376;50.954;4.716;2023-04-06T09:52:54;33.25;;;17.33;;
35239;SDS011;21376;50.954;4.716;2023-04-06T09:55:40;30.33;;;15.10;;
35239;SDS011;21376;50.954;4.716;2023-04-06T09:58:09;31.70;;;17.27;;
35239;SDS011;21376;50.954;4.716;2023-04-06T10:00:56;32.22;;;16.48;;
35239;SDS011;21376;50.954;4.716;2023-04-06T10:09:05;30.10;;;17.55;;
35239;SDS011;21376;50.954;4.716;2023-04-06T10:14:04;30.58;;;17.02;;
35239;SDS011;21376;50.954;4.716;2023-04-06T10:16:32;27.85;;;16.85;;
35239;SDS011;21376;50.954;4.716;2023-04-06T10:41:16;22.45;;;13.20;;
35239;SDS011;21376;50.954;4.716;2023-04-06T10:43:44;23.25;;;13.77;;
35239;SDS011;21376;50.954;4.716;2023-04-06T10:46:12;22.35;;;12.35;;
35239;SDS011;21376;50.954;4.716;2023-04-06T10:48:45;23.65;;;13.00;;
35239;SDS011;21376;50.954;4.716;2023-04-06T10:51:12;24.80;;;14.15;;
35239;SDS011;21376;50.954;4.716;2023-04-06T10:53:44;24.25;;;14.55;;
35239;SDS011;21376;50.954;4.716;2023-04-06T10:56:13;22.08;;;12.40;;
35239;SDS011;21376;50.954;4.716;2023-04-06T11:01:38;27.05;;;14.05;;
35239;SDS011;21376;50.954;4.716;2023-04-06T11:04:10;23.60;;;14.63;;
35239;SDS011;21376;50.954;4.716;2023-04-06T11:06:39;27.05;;;14.98;;
35239;SDS011;21376;50.954;4.716;2023-04-06T11:09:06;27.67;;;15.88;;
35239;SDS011;21376;50.954;4.716;2023-04-06T11:11:38;23.48;;;14.48;;
35239;SDS011;21376;50.954;4.716;2023-04-06T11:14:16;22.92;;;14.60;;
35239;SDS011;21376;50.954;4.716;2023-04-06T11:23:09;23.67;;;14.65;;
35239;SDS011;21376;50.954;4.716;2023-04-06T11:25:38;24.75;;;13.32;;
35239;SDS011;21376;50.954;4.716;2023-04-06T11:28:07;24.70;;;13.95;;
35239;SDS011;21376;50.954;4.716;2023-04-06T11:30:36;24.92;;;14.32;;
35239;SDS011;21376;50.954;4.716;2023-04-06T11:35:34;23.48;;;15.07;;
35239;SDS011;21376;50.954;4.716;2023-04-06T11:46:03;27.27;;;14.23;;
35239;SDS011;21376;50.954;4.716;2023-04-06T11:48:43;18.65;;;12.10;;
35239;SDS011;21376;50.954;4.716;2023-04-06T11:51:12;24.13;;;13.63;;
35239;SDS011;21376;50.954;4.716;2023-04-06T11:53:47;24.30;;;12.23;;
35239;SDS011;21376;50.954;4.716;2023-04-06T11:58:58;22.50;;;13.95;;
35239;SDS011;21376;50.954;4.716;2023-04-06T12:01:32;25.77;;;15.00;;
35239;SDS011;21376;50.954;4.716;2023-04-06T12:07:20;18.13;;;12.38;;
35239;SDS011;21376;50.954;4.716;2023-04-06T12:12:34;22.33;;;10.82;;
35239;SDS011;21376;50.954;4.716;2023-04-06T12:17:33;28.50;;;13.48;;
35239;SDS011;21376;50.954;4.716;2023-04-06T12:23:00;20.38;;;12.85;;
35239;SDS011;21376;50.954;4.716;2023-04-06T12:27:59;21.77;;;12.70;;
35239;SDS011;21376;50.954;4.716;2023-04-06T12:30:26;19.63;;;12.23;;
35239;SDS011;21376;50.954;4.716;2023-04-06T12:32:55;22.73;;;13.93;;
35239;SDS011;21376;50.954;4.716;2023-04-06T12:40:59;22.55;;;13.52;;
35239;SDS011;21376;50.954;4.716;2023-04-06T12:43:31;16.30;;;8.93;;
35239;SDS011;21376;50.954;4.716;2023-04-06T12:48:28;20.15;;;13.10;;
35239;SDS011;21376;50.954;4.716;2023-04-06T12:53:27;21.45;;;13.00;;
35239;SDS011;21376;50.954;4.716;2023-04-06T12:56:11;21.10;;;11.27;;
35239;SDS011;21376;50.954;4.716;2023-04-06T13:01:13;21.92;;;13.23;;
35239;SDS011;21376;50.954;4.716;2023-04-06T13:03:40;16.95;;;10.45;;
35239;SDS011;21376;50.954;4.716;2023-04-06T13:06:09;18.80;;;13.38;;
35239;SDS011;21376;50.954;4.716;2023-04-06T13:11:05;22.00;;;13.95;;
35239;SDS011;21376;50.954;4.716;2023-04-06T13:16:06;18.95;;;12.75;;
35239;SDS011;21376;50.954;4.716;2023-04-06T13:18:38;21.45;;;14.05;;
35239;SDS011;21376;50.954;4.716;2023-04-06T13:21:07;23.02;;;14.55;;
35239;SDS011;21376;50.954;4.716;2023-04-06T13:23:36;23.00;;;15.70;;
35239;SDS011;21376;50.954;4.716;2023-04-06T13:26:03;25.65;;;14.48;;
35239;SDS011;21376;50.954;4.716;2023-04-06T13:28:31;23.80;;;14.48;;
35239;SDS011;21376;50.954;4.716;2023-04-06T13:31:01;22.05;;;13.15;;
35239;SDS011;21376;50.954;4.716;2023-04-06T13:33:29;24.17;;;14.65;;
35239;SDS011;21376;50.954;4.716;2023-04-06T13:35:55;22.60;;;15.02;;
35239;SDS011;21376;50.954;4.716;2023-04-06T13:38:23;21.30;;;13.77;;
35239;SDS011;21376;50.954;4.716;2023-04-06T13:40:52;25.73;;;16.33;;
35239;SDS011;21376;50.954;4.716;2023-04-06T13:43:20;23.17;;;14.32;;
35239;SDS011;21376;50.954;4.716;2023-04-06T13:45:49;23.90;;;16.00;;
35239;SDS011;21376;50.954;4.716;2023-04-06T13:48:16;32.25;;;18.10;;
35239;SDS011;21376;50.954;4.716;2023-04-06T13:50:45;25.67;;;16.88;;
35239;SDS011;21376;50.954;4.716;2023-04-06T13:55:43;30.80;;;18.83;;
35239;SDS011;21376;50.954;4.716;2023-04-06T13:58:18;32.80;;;18.90;;
35239;SDS011;21376;50.954;4.716;2023-04-06T14:00:52;30.40;;;17.55;;
35239;SDS011;21376;50.954;4.716;2023-04-06T14:05:48;28.40;;;16.25;;
35239;SDS011;21376;50.954;4.716;2023-04-06T14:08:14;33.40;;;18.83;;
35239;SDS011;21376;50.954;4.716;2023-04-06T14:10:43;33.42;;;19.65;;
35239;SDS011;21376;50.954;4.716;2023-04-06T14:13:11;32.17;;;19.23;;
35239;SDS011;21376;50.954;4.716;2023-04-06T14:15:40;29.70;;;18.00;;
35239;SDS011;21376;50.954;4.716;2023-04-06T14:18:09;36.95;;;21.63;;
35239;SDS011;21376;50.954;4.716;2023-04-06T14:20:38;32.92;;;19.70;;
35239;SDS011;21376;50.954;4.716;2023-04-06T14:23:07;34.60;;;20.70;;
35239;SDS011;21376;50.954;4.716;2023-04-06T14:25:39;32.25;;;18.77;;
35239;SDS011;21376;50.954;4.716;2023-04-06T14:28:11;38.08;;;21.05;;
35239;SDS011;21376;50.954;4.716;2023-04-06T14:30:38;32.15;;;19.40;;
35239;SDS011;21376;50.954;4.716;2023-04-06T14:33:04;36.17;;;21.38;;
35239;SDS011;21376;50.954;4.716;2023-04-06T14:35:30;32.38;;;19.25;;
35239;SDS011;21376;50.954;4.716;2023-04-06T14:44:05;29.83;;;18.58;;
35239;SDS011;21376;50.954;4.716;2023-04-06T14:46:46;34.20;;;19.13;;
35239;SDS011;21376;50.954;4.716;2023-04-06T14:52:05;29.67;;;19.93;;
35239;SDS011;21376;50.954;4.716;2023-04-06T14:54:34;35.63;;;19.83;;
35239;SDS011;21376;50.954;4.716;2023-04-06T14:59:53;27.63;;;18.13;;
35239;SDS011;21376;50.954;4.716;2023-04-06T15:02:22;29.15;;;19.58;;
35239;SDS011;21376;50.954;4.716;2023-04-06T15:04:56;33.00;;;21.10;;
35239;SDS011;21376;50.954;4.716;2023-04-06T15:09:51;30.60;;;19.08;;
35239;SDS011;21376;50.954;4.716;2023-04-06T15:12:17;26.17;;;15.70;;
35239;SDS011;21376;50.954;4.716;2023-04-06T15:14:43;37.63;;;22.52;;
35239;SDS011;21376;50.954;4.716;2023-04-06T15:17:09;39.95;;;23.98;;
35239;SDS011;21376;50.954;4.716;2023-04-06T15:19:40;30.10;;;20.52;;
35239;SDS011;21376;50.954;4.716;2023-04-06T15:22:10;32.65;;;21.13;;
35239;SDS011;21376;50.954;4.716;2023-04-06T15:24:37;32.90;;;20.83;;
35239;SDS011;21376;50.954;4.716;2023-04-06T15:27:06;32.13;;;21.30;;
35239;SDS011;21376;50.954;4.716;2023-04-06T15:32:04;31.00;;;21.10;;
35239;SDS011;21376;50.954;4.716;2023-04-06T15:43:54;34.08;;;21.48;;
35239;SDS011;21376;50.954;4.716;2023-04-06T15:46:20;35.78;;;21.52;;
35239;SDS011;21376;50.954;4.716;2023-04-06T15:51:15;35.03;;;22.08;;
35239;SDS011;21376;50.954;4.716;2023-04-06T15:53:46;34.90;;;22.63;;
35239;SDS011;21376;50.954;4.716;2023-04-06T15:59:50;30.13;;;20.00;;
35239;SDS011;21376;50.954;4.716;2023-04-06T16:02:18;31.70;;;19.52;;
35239;SDS011;21376;50.954;4.716;2023-04-06T16:07:42;40.63;;;23.23;;
35239;SDS011;21376;50.954;4.716;2023-04-06T16:10:09;37.65;;;23.27;;
35239;SDS011;21376;50.954;4.716;2023-04-06T16:12:43;37.92;;;23.08;;
35239;SDS011;21376;50.954;4.716;2023-04-06T16:15:09;37.20;;;22.75;;
35239;SDS011;21376;50.954;4.716;2023-04-06T16:17:37;39.00;;;23.75;;
35239;SDS011;21376;50.954;4.716;2023-04-06T16:22:47;39.00;;;23.58;;
35239;SDS011;21376;50.954;4.716;2023-04-06T16:25:19;40.55;;;24.00;;
35239;SDS011;21376;50.954;4.716;2023-04-06T16:27:48;38.17;;;22.88;;
35239;SDS011;21376;50.954;4.716;2023-04-06T16:32:46;37.63;;;23.92;;
35239;SDS011;21376;50.954;4.716;2023-04-06T16:35:18;36.25;;;22.17;;
35239;SDS011;21376;50.954;4.716;2023-04-06T16:37:44;37.03;;;24.90;;
35239;SDS011;21376;50.954;4.716;2023-04-06T16:40:10;34.90;;;22.60;;
35239;SDS011;21376;50.954;4.716;2023-04-06T16:50:48;36.58;;;23.00;;
35239;SDS011;21376;50.954;4.716;2023-04-06T16:53:16;40.65;;;24.25;;
35239;SDS011;21376;50.954;4.716;2023-04-06T16:58:11;41.33;;;25.83;;
35239;SDS011;21376;50.954;4.716;2023-04-06T17:03:09;45.20;;;27.92;;
35239;SDS011;21376;50.954;4.716;2023-04-06T17:05:41;40.90;;;23.95;;
35239;SDS011;21376;50.954;4.716;2023-04-06T17:10:37;40.72;;;22.85;;
35239;SDS011;21376;50.954;4.716;2023-04-06T17:13:19;39.58;;;24.10;;
35239;SDS011;21376;50.954;4.716;2023-04-06T17:15:51;53.67;;;30.58;;
35239;SDS011;21376;50.954;4.716;2023-04-06T17:18:19;58.20;;;34.50;;
35239;SDS011;21376;50.954;4.716;2023-04-06T17:20:47;46.78;;;29.60;;
35239;SDS011;21376;50.954;4.716;2023-04-06T17:23:13;54.97;;;31.38;;
35239;SDS011;21376;50.954;4.716;2023-04-06T17:28:11;42.25;;;26.48;;
35239;SDS011;21376;50.954;4.716;2023-04-06T17:35:39;39.90;;;25.05;;
35239;SDS011;21376;50.954;4.716;2023-04-06T17:40:39;39.53;;;24.25;;
35239;SDS011;21376;50.954;4.716;2023-04-06T17:45:36;42.30;;;24.42;;
35239;SDS011;21376;50.954;4.716;2023-04-06T17:54:35;44.05;;;24.02;;
35239;SDS011;21376;50.954;4.716;2023-04-06T17:57:08;40.60;;;23.23;;
35239;SDS011;21376;50.954;4.716;2023-04-06T18:04:35;46.78;;;22.15;;
35239;SDS011;21376;50.954;4.716;2023-04-06T18:10:25;37.30;;;20.30;;
35239;SDS011;21376;50.954;4.716;2023-04-06T18:12:52;42.22;;;18.27;;
35239;SDS011;21376;50.954;4.716;2023-04-06T18:15:18;29.33;;;16.88;;
35239;SDS011;21376;50.954;4.716;2023-04-06T18:17:45;33.08;;;17.35;;
35239;SDS011;21376;50.954;4.716;2023-04-06T18:20:11;34.00;;;17.17;;
35239;SDS011;21376;50.954;4.716;2023-04-06T18:22:37;31.58;;;16.30;;
35239;SDS011;21376;50.954;4.716;2023-04-06T18:27:33;33.53;;;15.48;;
35239;SDS011;21376;50.954;4.716;2023-04-06T18:30:03;37.30;;;16.10;;
35239;SDS011;21376;50.954;4.716;2023-04-06T18:32:32;37.33;;;15.88;;
35239;SDS011;21376;50.954;4.716;2023-04-06T18:34:59;38.03;;;15.93;;
35239;SDS011;21376;50.954;4.716;2023-04-06T18:37:25;32.13;;;15.77;;
35239;SDS011;21376;50.954;4.716;2023-04-06T18:42:23;32.85;;;14.73;;
35239;SDS011;21376;50.954;4.716;2023-04-06T18:44:49;42.70;;;15.35;;
35239;SDS011;21376;50.954;4.716;2023-04-06T18:47:16;35.95;;;14.63;;
35239;SDS011;21376;50.954;4.716;2023-04-06T18:49:41;36.97;;;13.70;;
35239;SDS011;21376;50.954;4.716;2023-04-06T18:52:08;35.67;;;13.98;;
35239;SDS011;21376;50.954;4.716;2023-04-06T18:54:33;30.27;;;13.02;;
35239;SDS011;21376;50.954;4.716;2023-04-06T18:57:00;32.25;;;14.30;;
35239;SDS011;21376;50.954;4.716;2023-04-06T19:01:59;37.17;;;14.50;;
35239;SDS011;21376;50.954;4.716;2023-04-06T19:04:25;44.55;;;14.23;;
35239;SDS011;21376;50.954;4.716;2023-04-06T19:06:56;45.58;;;14.60;;
35239;SDS011;21376;50.954;4.716;2023-04-06T19:12:28;48.35;;;15.23;;
35239;SDS011;21376;50.954;4.716;2023-04-06T19:17:44;39.92;;;16.15;;
35239;SDS011;21376;50.954;4.716;2023-04-06T19:26:32;49.88;;;18.17;;
35239;SDS011;21376;50.954;4.716;2023-04-06T19:29:01;46.63;;;18.27;;
35239;SDS011;21376;50.954;4.716;2023-04-06T19:31:30;45.03;;;17.13;;
35239;SDS011;21376;50.954;4.716;2023-04-06T19:39:41;48.65;;;20.25;;
35239;SDS011;21376;50.954;4.716;2023-04-06T19:44:56;47.08;;;17.98;;
35239;SDS011;21376;50.954;4.716;2023-04-06T19:47:22;49.13;;;17.45;;
35239;SDS011;21376;50.954;4.716;2023-04-06T19:49:50;38.05;;;16.30;;
35239;SDS011;21376;50.954;4.716;2023-04-06T19:57:53;39.30;;;16.52;;
35239;SDS011;21376;50.954;4.716;2023-04-06T20:00:25;33.20;;;15.73;;
35239;SDS011;21376;50.954;4.716;2023-04-06T20:02:54;44.92;;;16.55;;
35239;SDS011;21376;50.954;4.716;2023-04-06T20:05:29;31.17;;;16.38;;
35239;SDS011;21376;50.954;4.716;2023-04-06T20:10:29;42.95;;;17.35;;
35239;SDS011;21376;50.954;4.716;2023-04-06T20:13:11;45.25;;;17.60;;
35239;SDS011;21376;50.954;4.716;2023-04-06T20:15:52;46.58;;;17.92;;
35239;SDS011;21376;50.954;4.716;2023-04-06T20:21:09;35.03;;;17.95;;
35239;SDS011;21376;50.954;4.716;2023-04-06T20:23:38;38.90;;;18.70;;
35239;SDS011;21376;50.954;4.716;2023-04-06T20:53:18;76.15;;;31.45;;
35239;SDS011;21376;50.954;4.716;2023-04-06T20:58:16;58.83;;;28.92;;
35239;SDS011;21376;50.954;4.716;2023-04-06T21:00:50;58.97;;;27.42;;
35239;SDS011;21376;50.954;4.716;2023-04-06T21:03:19;54.03;;;26.52;;
35239;SDS011;21376;50.954;4.716;2023-04-06T21:08:29;58.10;;;27.58;;
35239;SDS011;21376;50.954;4.716;2023-04-06T21:11:02;62.85;;;30.77;;
35239;SDS011;21376;50.954;4.716;2023-04-06T21:16:01;50.47;;;24.27;;
35239;SDS011;21376;50.954;4.716;2023-04-06T21:18:37;50.00;;;24.20;;
35239;SDS011;21376;50.954;4.716;2023-04-06T21:21:09;48.22;;;24.48;;
35239;SDS011;21376;50.954;4.716;2023-04-06T21:23:38;46.05;;;23.33;;
35239;SDS011;21376;50.954;4.716;2023-04-06T21:26:05;47.92;;;22.08;;
35239;SDS011;21376;50.954;4.716;2023-04-06T21:28:34;47.55;;;23.40;;
35239;SDS011;21376;50.954;4.716;2023-04-06T21:31:05;44.53;;;21.60;;
35239;SDS011;21376;50.954;4.716;2023-04-06T21:33:32;47.35;;;20.73;;
35239;SDS011;21376;50.954;4.716;2023-04-06T21:36:02;40.65;;;19.85;;
35239;SDS011;21376;50.954;4.716;2023-04-06T21:41:02;40.95;;;19.20;;
35239;SDS011;21376;50.954;4.716;2023-04-06T21:43:35;44.70;;;19.88;;
35239;SDS011;21376;50.954;4.716;2023-04-06T21:48:33;36.83;;;17.50;;
35239;SDS011;21376;50.954;4.716;2023-04-06T21:50:59;37.30;;;17.40;;
35239;SDS011;21376;50.954;4.716;2023-04-06T21:59:00;34.33;;;15.27;;
35239;SDS011;21376;50.954;4.716;2023-04-06T22:01:26;30.58;;;14.23;;
35239;SDS011;21376;50.954;4.716;2023-04-06T22:03:59;26.98;;;13.20;;
35239;SDS011;21376;50.954;4.716;2023-04-06T22:06:28;23.75;;;12.10;;
35239;SDS011;21376;50.954;4.716;2023-04-06T22:13:54;29.27;;;12.45;;